Terminal Aerodrome Forecast
Issued by NWS Wilmington, OH

Home | Current Version | Previous Version | Text Only | Print | Product List | Glossary On
Versions: 1 2 3 4 5 6 7 8 9 10 11 12 13 14 15 16 17 18
000
FTUS41 KILN 212300
TAFCMH
TAF
KCMH 212330Z 2200/2224 34010KT P6SM OVC040
     FM220100 35008KT P6SM OVC025
     FM220500 34007KT P6SM OVC015
     FM221600 36010KT P6SM OVC025
     FM222000 36010KT P6SM SCT030=

USA.gov is the U.S. government's official web portal to all federal, state and local government web resources and services.